Time;durP1;ratioP1;P1;durP2;ratioP2;P2;SDS_P1;SDS_P2;PMS_P1;PMS_P2;Temp;Humidity;BMP_temperature;BMP_pressure;BME280_temperature;BME280_humidity;BME280_pressure;Samples;Min_cycle;Max_cycle;Signal;HPM_P1;HPM_P2
2022/06/09 00:00:48;;;;;;;2.00;1.00;;;;;10.90;93636.00;;;;7394058;19;20153;-79
2022/06/09 00:03:27;;;;;;;11.32;1.38;;;;;11.00;93645.00;;;;7394772;19;20612;-74
2022/06/09 00:06:04;;;;;;;7.07;1.40;;;;;10.90;93628.00;;;;7395762;19;20145;-77
2022/06/09 00:08:32;;;;;;;1.10;0.95;;;;;10.90;93628.00;;;;7396475;19;20541;-77
2022/06/09 00:11:05;;;;;;;3.30;1.38;;;;;10.90;93624.00;;;;7396846;19;20494;-76
2022/06/09 00:13:40;;;;;;;2.42;0.82;;;;;10.80;93624.00;;;;7396024;19;20140;-77
2022/06/09 00:16:10;;;;;;;4.97;0.70;;;;;11.00;93621.00;;;;7396179;19;20132;-78
2022/06/09 00:18:38;;;;;;;8.65;1.08;;;;;10.90;93620.00;;;;7396161;19;20125;-78
2022/06/09 00:21:13;;;;;;;3.47;0.98;;;;;10.90;93622.00;;;;7396720;19;20161;-78
2022/06/09 00:23:43;;;;;;;6.35;0.90;;;;;10.90;93618.00;;;;7394564;19;20116;-78
2022/06/09 00:26:12;;;;;;;5.30;0.90;;;;;10.80;93623.00;;;;7395698;19;20492;-78
2022/06/09 00:28:46;;;;;;;2.30;0.90;;;;;10.70;93632.00;;;;7396562;19;20133;-77
2022/06/09 00:31:14;;;;;;;1.25;1.00;;;;;10.70;93622.00;;;;7397858;19;20237;-77
2022/06/09 00:33:42;;;;;;;1.00;0.80;;;;;10.70;93631.00;;;;7395927;19;20136;-79
2022/06/09 00:36:17;;;;;;;1.30;0.93;;;;;10.70;93631.00;;;;7395607;19;20132;-77
2022/06/09 00:38:46;;;;;;;1.65;0.73;;;;;10.70;93627.00;;;;7395937;19;20208;-78
2022/06/09 00:41:13;;;;;;;0.93;0.80;;;;;10.60;93636.00;;;;7393873;19;20628;-75
2022/06/09 00:43:48;;;;;;;2.35;0.70;;;;;10.60;93631.00;;;;7395316;19;20572;-75
2022/06/09 00:46:30;;;;;;;1.58;0.80;;;;;10.60;93635.00;;;;7395107;19;20200;-77
2022/06/09 00:49:21;;;;;;;1.15;1.00;;;;;10.60;93631.00;;;;7393982;19;20667;-78
2022/06/09 00:51:59;;;;;;;1.75;1.13;;;;;10.70;93622.00;;;;7394973;19;20129;-76
2022/06/09 00:54:49;;;;;;;2.42;0.70;;;;;10.70;93626.00;;;;7395719;19;20141;-78
2022/06/09 00:57:24;;;;;;;2.07;1.07;;;;;10.70;93620.00;;;;7396054;19;20484;-77
2022/06/09 01:00:06;;;;;;;2.07;1.03;;;;;10.70;93630.00;;;;7396545;19;20125;-78
2022/06/09 01:02:34;;;;;;;3.35;0.90;;;;;10.70;93626.00;;;;7394280;19;20484;-79
2022/06/09 01:05:08;;;;;;;0.93;0.80;;;;;10.70;93633.00;;;;7395232;19;20148;-78
2022/06/09 01:07:41;;;;;;;1.55;0.98;;;;;10.60;93628.00;;;;7394249;19;20137;-78
2022/06/09 01:10:15;;;;;;;1.13;0.98;;;;;10.60;93636.00;;;;7394711;19;20600;-78
2022/06/09 01:12:45;;;;;;;1.92;0.95;;;;;10.60;93631.00;;;;7396470;19;20644;-79
2022/06/09 01:15:19;;;;;;;1.87;0.77;;;;;10.60;93629.00;;;;7393720;19;20141;-78
2022/06/09 01:18:19;;;;;;;2.60;1.00;;;;;10.60;93628.00;;;;7391902;19;20214;-77
2022/06/09 01:21:02;;;;;;;2.63;0.90;;;;;10.70;93633.00;;;;7392863;19;20129;-78
2022/06/09 01:23:47;;;;;;;1.10;1.00;;;;;10.70;93639.00;;;;7390699;19;20593;-76
2022/06/09 01:26:26;;;;;;;1.20;1.10;;;;;10.70;93639.00;;;;7390939;19;20612;-76
2022/06/09 01:29:10;;;;;;;4.93;1.58;;;;;10.70;93641.00;;;;7391134;19;20215;-76
2022/06/09 01:31:47;;;;;;;6.43;1.35;;;;;10.70;93645.00;;;;7392978;19;20131;-78
2022/06/09 01:34:27;;;;;;;5.03;1.52;;;;;10.70;93640.00;;;;7391974;19;20140;-77
2022/06/09 01:37:07;;;;;;;2.05;1.67;;;;;10.60;93640.00;;;;7391793;19;20138;-76
2022/06/09 01:39:48;;;;;;;3.60;1.85;;;;;10.70;93628.00;;;;7391267;19;20148;-77
2022/06/09 01:42:27;;;;;;;3.22;1.83;;;;;10.60;93631.00;;;;7391217;19;20149;-77
2022/06/09 01:45:22;;;;;;;2.30;2.00;;;;;10.50;93630.00;;;;7390234;19;20138;-76
2022/06/09 01:48:13;;;;;;;2.83;2.00;;;;;10.50;93637.00;;;;7392397;19;20133;-76
2022/06/09 01:51:03;;;;;;;5.72;2.10;;;;;10.60;93633.00;;;;7389969;19;20141;-76
2022/06/09 01:53:47;;;;;;;7.57;2.53;;;;;10.40;93641.00;;;;7390867;19;20164;-76
2022/06/09 01:56:43;;;;;;;6.90;2.30;;;;;10.40;93642.00;;;;7392286;19;20447;-77
2022/06/09 01:59:31;;;;;;;4.15;2.60;;;;;10.50;93652.00;;;;7390451;19;20144;-76
2022/06/09 02:02:13;;;;;;;3.70;2.40;;;;;10.50;93646.00;;;;7392022;19;20623;-77
2022/06/09 02:04:45;;;;;;;4.53;2.60;;;;;10.50;93650.00;;;;7392797;19;20166;-76
2022/06/09 02:07:20;;;;;;;7.63;2.77;;;;;10.50;93650.00;;;;7397880;19;20629;-77
2022/06/09 02:09:48;;;;;;;7.72;2.90;;;;;10.50;93647.00;;;;7397175;19;20600;-77
2022/06/09 02:12:18;;;;;;;5.20;2.85;;;;;10.50;93648.00;;;;7398745;19;20141;-76
2022/06/09 02:14:57;;;;;;;4.37;2.60;;;;;10.60;93645.00;;;;7397711;19;20604;-76
2022/06/09 02:17:27;;;;;;;7.47;3.30;;;;;10.50;93645.00;;;;7396945;19;20145;-77
2022/06/09 02:20:01;;;;;;;6.75;2.83;;;;;10.50;93647.00;;;;7398253;19;20132;-75
2022/06/09 02:22:29;;;;;;;11.15;2.80;;;;;10.50;93665.00;;;;7395525;19;20146;-76
2022/06/09 02:24:56;;;;;;;5.50;3.33;;;;;10.60;93664.00;;;;7396535;19;20477;-76
2022/06/09 02:27:30;;;;;;;7.45;3.00;;;;;10.60;93657.00;;;;7397074;19;20640;-77
2022/06/09 02:29:57;;;;;;;5.45;3.10;;;;;10.60;93655.00;;;;7396636;19;20139;-78
2022/06/09 02:32:25;;;;;;;5.20;3.00;;;;;10.60;93665.00;;;;7397590;19;20500;-76
2022/06/09 02:34:59;;;;;;;7.55;3.00;;;;;10.60;93671.00;;;;7397332;19;20497;-76
2022/06/09 02:37:26;;;;;;;4.55;3.08;;;;;10.60;93654.00;;;;7396993;19;20541;-76
2022/06/09 02:39:54;;;;;;;6.70;2.92;;;;;10.70;93659.00;;;;7397250;19;20585;-77
2022/06/09 02:42:28;;;;;;;9.52;2.90;;;;;10.80;93670.00;;;;7398470;19;20141;-76
2022/06/09 02:44:55;;;;;;;9.40;3.50;;;;;10.80;93670.00;;;;7396221;19;20170;-77
2022/06/09 02:47:25;;;;;;;7.38;3.35;;;;;10.60;93665.00;;;;7397052;19;20147;-77
2022/06/09 02:50:14;;;;;;;7.43;3.40;;;;;10.60;93671.00;;;;7394462;19;20172;-77
2022/06/09 02:52:50;;;;;;;19.00;3.70;;;;;10.60;93667.00;;;;7396055;19;20657;-76
2022/06/09 02:55:24;;;;;;;6.40;3.45;;;;;10.50;93665.00;;;;7395713;19;20137;-77
2022/06/09 02:57:52;;;;;;;6.32;3.30;;;;;10.50;93669.00;;;;7396580;19;20596;-77
2022/06/09 03:00:20;;;;;;;8.85;3.75;;;;;10.50;93672.00;;;;7396539;19;20864;-77
2022/06/09 03:03:00;;;;;;;10.23;3.60;;;;;10.50;93679.00;;;;7396199;19;20147;-77
2022/06/09 03:05:29;;;;;;;10.43;3.33;;;;;10.50;93677.00;;;;7397246;19;20188;-78
2022/06/09 03:08:07;;;;;;;11.13;3.38;;;;;10.60;93676.00;;;;7396324;19;20633;-79
2022/06/09 03:10:37;;;;;;;8.70;3.30;;;;;10.60;93678.00;;;;7396069;19;20133;-78
2022/06/09 03:13:05;;;;;;;11.40;4.00;;;;;10.60;93677.00;;;;7395199;19;20205;-78
2022/06/09 03:15:39;;;;;;;10.73;3.50;;;;;10.50;93688.00;;;;7394962;19;20155;-78
2022/06/09 03:18:07;;;;;;;9.27;3.40;;;;;10.50;93690.00;;;;7396706;19;20151;-77
2022/06/09 03:20:34;;;;;;;10.27;3.10;;;;;10.50;93694.00;;;;7394791;19;20133;-76
2022/06/09 03:23:08;;;;;;;3.45;2.80;;;;;10.50;93697.00;;;;7394826;19;20510;-76
2022/06/09 03:25:36;;;;;;;9.73;2.70;;;;;10.40;93697.00;;;;7394903;19;20205;-76
2022/06/09 03:28:05;;;;;;;4.55;2.95;;;;;10.40;93704.00;;;;7395782;19;20166;-76
2022/06/09 03:30:39;;;;;;;8.23;3.00;;;;;10.40;93701.00;;;;7394546;19;20132;-77
2022/06/09 03:33:07;;;;;;;7.20;2.60;;;;;10.50;93707.00;;;;7394743;19;20140;-77
2022/06/09 03:35:35;;;;;;;5.60;2.87;;;;;10.40;93707.00;;;;7395072;19;20143;-77
2022/06/09 03:38:09;;;;;;;7.33;3.00;;;;;10.40;93708.00;;;;7395135;19;20140;-77
2022/06/09 03:40:37;;;;;;;7.90;2.27;;;;;10.30;93709.00;;;;7395849;19;20129;-77
2022/06/09 03:43:04;;;;;;;10.48;2.85;;;;;10.40;93706.00;;;;7393991;19;20484;-77
2022/06/09 03:45:38;;;;;;;5.53;2.67;;;;;10.30;93704.00;;;;7395000;19;20121;-77
2022/06/09 03:48:06;;;;;;;6.50;2.83;;;;;10.30;93712.00;;;;7395593;19;20133;-77
2022/06/09 03:50:34;;;;;;;5.20;3.00;;;;;10.40;93721.00;;;;7392418;19;20479;-77
2022/06/09 03:53:08;;;;;;;5.55;3.47;;;;;10.30;93710.00;;;;7395586;19;20136;-76
2022/06/09 03:55:36;;;;;;;7.17;3.33;;;;;10.30;93716.00;;;;7394033;19;20147;-79
2022/06/09 03:58:04;;;;;;;9.43;3.77;;;;;10.20;93718.00;;;;7393248;19;20140;-77
2022/06/09 04:00:38;;;;;;;6.27;3.87;;;;;10.30;93719.00;;;;7395790;19;20136;-77
2022/06/09 04:03:06;;;;;;;5.35;3.20;;;;;10.30;93730.00;;;;7393661;19;20527;-77
2022/06/09 04:05:34;;;;;;;8.88;2.95;;;;;10.20;93743.00;;;;7395150;19;20588;-76
2022/06/09 04:08:14;;;;;;;6.60;3.30;;;;;10.30;93727.00;;;;7395079;19;20187;-79
2022/06/09 04:10:42;;;;;;;5.38;3.00;;;;;10.20;93731.00;;;;7394914;19;20140;-76
2022/06/09 04:13:16;;;;;;;10.23;2.43;;;;;10.30;93734.00;;;;7393309;19;20213;-76
2022/06/09 04:15:44;;;;;;;5.00;2.70;;;;;10.30;93738.00;;;;7393279;19;20668;-77
2022/06/09 04:18:12;;;;;;;8.13;3.13;;;;;10.40;93733.00;;;;7394067;19;20168;-77
2022/06/09 04:20:49;;;;;;;8.00;3.00;;;;;10.40;93737.00;;;;7393190;19;20508;-76
2022/06/09 04:23:17;;;;;;;5.15;3.05;;;;;10.40;93741.00;;;;7392417;19;20121;-77
2022/06/09 04:25:44;;;;;;;8.20;3.08;;;;;10.50;93731.00;;;;7393252;19;20628;-76
2022/06/09 04:28:18;;;;;;;12.50;3.00;;;;;10.50;93735.00;;;;7392120;19;20597;-77
2022/06/09 04:30:46;;;;;;;6.23;3.00;;;;;10.60;93734.00;;;;7392873;19;20137;-76
2022/06/09 04:33:14;;;;;;;5.70;2.75;;;;;10.50;93736.00;;;;7392719;19;20162;-75
2022/06/09 04:35:50;;;;;;;11.45;2.78;;;;;10.50;93739.00;;;;7393017;19;20143;-76
2022/06/09 04:38:17;;;;;;;9.45;2.78;;;;;10.30;93738.00;;;;7392108;19;20616;-79
2022/06/09 04:40:45;;;;;;;10.00;3.42;;;;;10.30;93746.00;;;;7392336;19;20145;-76
2022/06/09 04:43:41;;;;;;;7.85;2.40;;;;;10.20;93745.00;;;;7390243;19;20588;-77
2022/06/09 04:46:22;;;;;;;6.13;2.70;;;;;10.20;93754.00;;;;7392383;19;20145;-77
2022/06/09 04:49:09;;;;;;;6.13;2.60;;;;;10.20;93757.00;;;;7391942;19;20136;-77
2022/06/09 04:51:43;;;;;;;7.00;2.90;;;;;10.20;93759.00;;;;7390585;19;20141;-79
2022/06/09 04:54:17;;;;;;;9.77;3.42;;;;;10.30;93760.00;;;;7392480;19;20152;-77
2022/06/09 04:56:45;;;;;;;10.60;3.40;;;;;10.50;93757.00;;;;7394303;19;20554;-77
2022/06/09 04:59:12;;;;;;;10.13;3.72;;;;;10.60;93743.00;;;;7394653;19;20133;-77
2022/06/09 05:01:47;;;;;;;6.38;3.28;;;;;10.80;93759.00;;;;7392967;19;20144;-77
2022/06/09 05:04:14;;;;;;;6.63;2.97;;;;;10.90;93762.00;;;;7394151;19;20209;-76
2022/06/09 05:06:42;;;;;;;6.05;3.00;;;;;11.00;93755.00;;;;7394361;19;20489;-76
2022/06/09 05:09:17;;;;;;;7.00;2.80;;;;;11.10;93754.00;;;;7395356;19;20149;-77
2022/06/09 05:11:53;;;;;;;6.88;2.83;;;;;11.20;93761.00;;;;7393679;19;20488;-76
2022/06/09 05:14:29;;;;;;;5.18;3.20;;;;;11.40;93765.00;;;;7393566;19;20161;-77
2022/06/09 05:16:56;;;;;;;15.13;2.60;;;;;11.40;93765.00;;;;7395731;19;20153;-76
2022/06/09 05:19:25;;;;;;;8.85;2.88;;;;;11.40;93769.00;;;;7399404;19;20592;-76
2022/06/09 05:22:00;;;;;;;6.30;2.67;;;;;11.50;93776.00;;;;7393696;19;20188;-76
2022/06/09 05:24:28;;;;;;;8.85;2.63;;;;;11.70;93772.00;;;;7395572;19;20137;-77
2022/06/09 05:26:58;;;;;;;7.32;2.33;;;;;11.50;93772.00;;;;7397061;19;20144;-76
2022/06/09 05:29:37;;;;;;;7.60;2.10;;;;;11.40;93781.00;;;;7397922;19;20144;-77
2022/06/09 05:32:05;;;;;;;7.38;2.50;;;;;11.50;93780.00;;;;7395248;19;20153;-77
2022/06/09 05:34:34;;;;;;;7.22;2.20;;;;;11.70;93787.00;;;;7396116;19;20185;-76
2022/06/09 05:37:10;;;;;;;7.47;2.17;;;;;11.60;93772.00;;;;7397301;19;20140;-77
2022/06/09 05:45:21;;;;;;;6.07;1.80;;;;;11.30;93789.00;;;;7394397;19;20152;-77
2022/06/09 05:47:59;;;;;;;5.70;2.00;;;;;11.50;93794.00;;;;7390656;19;20132;-77
2022/06/09 05:50:35;;;;;;;5.95;2.08;;;;;11.60;93802.00;;;;7394092;19;20177;-77
2022/06/09 05:53:10;;;;;;;7.53;2.35;;;;;11.50;93796.00;;;;7396788;19;20137;-78
2022/06/09 05:55:38;;;;;;;5.28;1.92;;;;;11.50;93786.00;;;;7392337;19;20133;-77
2022/06/09 05:58:05;;;;;;;6.82;2.47;;;;;11.40;93798.00;;;;7393642;19;20145;-78
2022/06/09 06:00:45;;;;;;;7.68;2.10;;;;;11.40;93807.00;;;;7395097;19;20488;-77
2022/06/09 06:03:15;;;;;;;6.78;1.80;;;;;11.60;93805.00;;;;7397426;19;20170;-80
2022/06/09 06:08:35;;;;;;;7.75;1.92;;;;;11.70;93818.00;;;;7396171;19;20125;-77
2022/06/09 06:11:10;;;;;;;9.13;2.03;;;;;11.80;93817.00;;;;7396789;19;20125;-78
2022/06/09 06:13:37;;;;;;;6.68;1.80;;;;;11.80;93807.00;;;;7396881;19;20204;-79
2022/06/09 06:16:06;;;;;;;5.28;1.90;;;;;11.90;93818.00;;;;7394972;19;20161;-78
2022/06/09 06:19:00;;;;;;;7.32;1.80;;;;;12.00;93816.00;;;;7395862;19;20156;-75
2022/06/09 06:21:28;;;;;;;5.32;1.80;;;;;11.80;93821.00;;;;7388308;19;20169;-74
2022/06/09 06:24:03;;;;;;;6.53;2.08;;;;;11.80;93811.00;;;;7389267;19;20135;-77
2022/06/09 06:26:38;;;;;;;4.90;1.50;;;;;11.80;93826.00;;;;7389755;19;20157;-79
2022/06/09 06:29:23;;;;;;;6.03;1.67;;;;;12.00;93830.00;;;;7390604;19;20503;-77
2022/06/09 06:31:53;;;;;;;6.13;1.60;;;;;11.90;93831.00;;;;7389515;19;20136;-76
2022/06/09 06:34:28;;;;;;;6.82;1.73;;;;;12.20;93826.00;;;;7389919;19;20128;-76
2022/06/09 06:37:00;;;;;;;6.60;1.80;;;;;12.30;93828.00;;;;7389917;19;20526;-80
2022/06/09 06:39:28;;;;;;;4.32;1.58;;;;;12.50;93826.00;;;;7390409;19;20188;-80
2022/06/09 06:42:02;;;;;;;4.20;1.67;;;;;12.40;93834.00;;;;7388884;19;20131;-75
2022/06/09 06:44:29;;;;;;;5.13;1.92;;;;;12.40;93828.00;;;;7386449;19;20148;-79
2022/06/09 06:46:57;;;;;;;8.15;2.10;;;;;12.60;93831.00;;;;7386203;19;20531;-78
2022/06/09 06:49:37;;;;;;;2.80;1.48;;;;;12.80;93827.00;;;;7386987;19;20648;-77
2022/06/09 06:52:11;;;;;;;7.38;1.85;;;;;13.00;93846.00;;;;7395692;19;20135;-78
2022/06/09 06:54:45;;;;;;;4.53;1.58;;;;;12.80;93858.00;;;;7396259;19;20133;-80
2022/06/09 06:57:13;;;;;;;6.38;1.60;;;;;12.70;93846.00;;;;7397159;19;20166;-78
2022/06/09 06:59:42;;;;;;;3.78;1.70;;;;;13.10;93855.00;;;;7396537;19;20150;-78
2022/06/09 07:02:18;;;;;;;3.00;1.20;;;;;13.00;93856.00;;;;7396263;19;20137;-76
2022/06/09 07:04:47;;;;;;;7.57;1.63;;;;;12.90;93859.00;;;;7395404;19;20144;-78
2022/06/09 07:07:15;;;;;;;5.90;1.75;;;;;12.80;93882.00;;;;7399364;19;20483;-79
2022/06/09 07:09:49;;;;;;;4.90;1.75;;;;;12.80;93862.00;;;;7395440;19;20137;-79
2022/06/09 07:12:17;;;;;;;9.13;1.60;;;;;13.20;93860.00;;;;7395418;19;20168;-74
2022/06/09 07:14:44;;;;;;;8.80;1.80;;;;;13.40;93862.00;;;;7396350;19;20133;-76
2022/06/09 07:17:20;;;;;;;4.65;1.65;;;;;14.00;93870.00;;;;7396421;19;20140;-76
2022/06/09 07:19:47;;;;;;;4.32;1.40;;;;;13.70;93887.00;;;;7395286;19;20735;-78
2022/06/09 07:22:15;;;;;;;6.38;1.65;;;;;13.40;93876.00;;;;7394348;19;20161;-78
2022/06/09 07:24:50;;;;;;;6.35;1.60;;;;;13.50;93862.00;;;;7395004;19;20147;-77
2022/06/09 07:27:17;;;;;;;9.32;2.00;;;;;13.50;93871.00;;;;7394614;19;20169;-76
2022/06/09 07:29:45;;;;;;;7.60;1.63;;;;;13.70;93889.00;;;;7395370;19;20644;-77
2022/06/09 07:32:20;;;;;;;6.07;1.40;;;;;14.00;93895.00;;;;7395427;19;20139;-77
2022/06/09 07:34:47;;;;;;;4.43;1.60;;;;;14.30;93883.00;;;;7394569;19;20635;-76
2022/06/09 07:37:17;;;;;;;4.43;1.40;;;;;14.20;93877.00;;;;7394661;19;20660;-76
2022/06/09 07:39:51;;;;;;;5.45;1.75;;;;;14.20;93891.00;;;;7395985;19;20153;-75
2022/06/09 07:42:18;;;;;;;6.00;1.45;;;;;14.20;93899.00;;;;7396469;19;20121;-74
2022/06/09 07:44:46;;;;;;;5.70;1.45;;;;;14.20;93890.00;;;;7394014;19;20837;-76
2022/06/09 07:47:20;;;;;;;7.07;1.65;;;;;14.60;93887.00;;;;7395429;19;20612;-76
2022/06/09 07:49:54;;;;;;;7.97;1.77;;;;;14.70;93889.00;;;;7392849;19;20176;-76
2022/06/09 07:52:41;;;;;;;2.33;1.30;;;;;14.80;93894.00;;;;7394200;19;20137;-77
2022/06/09 07:55:09;;;;;;;5.78;1.42;;;;;14.60;93910.00;;;;7395652;19;20463;-78
2022/06/09 07:57:44;;;;;;;7.85;1.48;;;;;14.90;93887.00;;;;7395273;19;20140;-76
2022/06/09 08:00:13;;;;;;;2.78;1.05;;;;;14.90;93899.00;;;;7394557;19;20601;-77
2022/06/09 08:02:43;;;;;;;7.32;1.65;;;;;14.60;93922.00;;;;7391566;19;20620;-77
2022/06/09 08:05:20;;;;;;;5.32;1.20;;;;;14.80;93924.00;;;;7392510;19;20131;-76
2022/06/09 08:07:48;;;;;;;5.47;1.27;;;;;14.30;93896.00;;;;7394811;19;20609;-76
2022/06/09 08:10:20;;;;;;;4.78;1.48;;;;;14.80;93905.00;;;;7393490;19;20245;-75
2022/06/09 08:12:57;;;;;;;3.45;1.40;;;;;14.70;93894.00;;;;7393337;19;20536;-74
2022/06/09 08:15:33;;;;;;;5.68;1.20;;;;;14.80;93899.00;;;;7394175;19;20623;-77
2022/06/09 08:18:07;;;;;;;4.88;1.27;;;;;14.90;93898.00;;;;7395195;19;20204;-74
2022/06/09 08:20:36;;;;;;;3.10;1.30;;;;;15.20;93891.00;;;;7392588;19;20154;-75
2022/06/09 08:23:21;;;;;;;3.58;1.30;;;;;15.80;93900.00;;;;7393900;19;20611;-75
2022/06/09 08:26:03;;;;;;;2.97;1.42;;;;;16.20;93898.00;;;;7393296;19;20604;-78
2022/06/09 08:28:31;;;;;;;2.05;1.20;;;;;15.50;93891.00;;;;7394417;19;20129;-76
2022/06/09 08:31:05;;;;;;;5.93;1.60;;;;;16.30;93899.00;;;;7393235;19;20136;-74
2022/06/09 08:33:33;;;;;;;7.32;1.30;;;;;16.30;93897.00;;;;7394441;19;20143;-73
2022/06/09 08:36:01;;;;;;;6.32;1.20;;;;;16.00;93903.00;;;;7391401;19;20148;-76
2022/06/09 08:38:36;;;;;;;2.03;1.15;;;;;16.10;93897.00;;;;7393793;19;20473;-75
2022/06/09 08:41:27;;;;;;;4.78;1.50;;;;;16.00;93906.00;;;;7392190;19;20152;-75
2022/06/09 08:44:05;;;;;;;5.45;1.20;;;;;16.20;93905.00;;;;7394835;19;20141;-75
2022/06/09 08:46:59;;;;;;;3.03;1.35;;;;;16.10;93910.00;;;;7392235;19;20208;-76
2022/06/09 08:49:54;;;;;;;5.07;1.38;;;;;16.40;93912.00;;;;7391663;19;20160;-74
2022/06/09 08:52:28;;;;;;;4.18;1.13;;;;;16.40;93915.00;;;;7393884;19;20133;-76
2022/06/09 08:55:20;;;;;;;3.17;1.30;;;;;16.20;93908.00;;;;7392629;19;20515;-74
2022/06/09 08:57:50;;;;;;;5.65;1.73;;;;;16.40;93920.00;;;;7392016;19;20132;-74
2022/06/09 09:00:29;;;;;;;3.97;1.27;;;;;16.50;93914.00;;;;7392503;19;20135;-75
2022/06/09 09:03:03;;;;;;;5.28;1.27;;;;;17.00;93916.00;;;;7391892;19;20204;-75
2022/06/09 09:05:50;;;;;;;3.33;1.20;;;;;17.80;93937.00;;;;7391951;19;20132;-76
2022/06/09 09:08:18;;;;;;;5.65;1.35;;;;;16.10;93929.00;;;;7392704;19;20120;-76
2022/06/09 09:11:04;;;;;;;5.40;1.42;;;;;16.20;93939.00;;;;7392710;19;20167;-74
2022/06/09 09:13:32;;;;;;;3.20;1.27;;;;;16.40;93941.00;;;;7391530;19;20144;-75
2022/06/09 09:16:31;;;;;;;5.28;1.42;;;;;17.10;93937.00;;;;7392153;19;20131;-75
2022/06/09 09:19:12;;;;;;;3.55;1.40;;;;;16.50;93953.00;;;;7392289;19;20137;-76
2022/06/09 09:22:19;;;;;;;3.85;1.33;;;;;16.30;93947.00;;;;7391063;19;20160;-75
2022/06/09 09:24:52;;;;;;;3.42;1.40;;;;;17.00;93927.00;;;;7393381;19;20145;-75
2022/06/09 09:27:43;;;;;;;7.65;1.60;;;;;16.90;93958.00;;;;7391810;19;20619;-76
2022/06/09 09:30:19;;;;;;;4.07;1.40;;;;;16.40;93946.00;;;;7392181;19;20148;-75
2022/06/09 09:32:56;;;;;;;4.93;1.40;;;;;16.50;93967.00;;;;7391222;19;20151;-74
2022/06/09 09:35:40;;;;;;;7.03;1.10;;;;;17.10;93950.00;;;;7392455;19;20226;-73
2022/06/09 09:38:17;;;;;;;2.60;1.20;;;;;17.40;93958.00;;;;7394123;19;20129;-76
2022/06/09 09:40:48;;;;;;;5.72;1.40;;;;;17.80;93954.00;;;;7391757;19;20144;-74
2022/06/09 09:43:26;;;;;;;7.20;1.50;;;;;18.00;93953.00;;;;7390916;19;20172;-75
2022/06/09 09:45:56;;;;;;;9.52;1.67;;;;;18.30;93966.00;;;;7389409;19;20142;-75
2022/06/09 09:48:40;;;;;;;4.15;1.58;;;;;18.10;93955.00;;;;7393082;19;20113;-75
2022/06/09 09:51:18;;;;;;;6.40;1.27;;;;;18.40;93960.00;;;;7389783;19;20160;-75
2022/06/09 09:53:54;;;;;;;3.38;1.30;;;;;18.00;93957.00;;;;7394564;19;20140;-75
2022/06/09 09:56:21;;;;;;;3.28;1.30;;;;;18.50;93948.00;;;;7389996;19;20620;-76
2022/06/09 09:58:49;;;;;;;7.38;1.42;;;;;18.80;93975.00;;;;7390352;19;20619;-75
2022/06/09 10:10:57;;;;;;;3.80;1.52;;;;;18.10;93968.00;;;;7390437;19;20558;-75
2022/06/09 10:13:49;;;;;;;3.22;1.10;;;;;18.10;93972.00;;;;7390198;19;20140;-74
2022/06/09 10:16:32;;;;;;;3.30;1.30;;;;;17.80;93984.00;;;;7390288;19;20196;-74
2022/06/09 10:19:26;;;;;;;2.63;1.30;;;;;17.20;93998.00;;;;7391514;19;20485;-76
2022/06/09 10:22:18;;;;;;;5.70;1.65;;;;;17.30;93996.00;;;;7390996;19;20209;-73
2022/06/09 10:25:30;;;;;;;4.30;1.20;;;;;17.70;94003.00;;;;7390757;19;20214;-73
2022/06/09 10:28:10;;;;;;;4.57;1.70;;;;;18.00;93975.00;;;;7399504;19;20110;-75
2022/06/09 10:31:30;;;;;;;5.10;1.25;;;;;17.40;93990.00;;;;7398732;19;20144;-75
2022/06/09 10:34:13;;;;;;;8.23;1.55;;;;;17.60;93988.00;;;;7397225;19;20136;-74
2022/06/09 10:36:59;;;;;;;4.05;1.30;;;;;18.50;93985.00;;;;7395393;19;20149;-74
2022/06/09 10:40:06;;;;;;;3.67;1.10;;;;;18.00;93991.00;;;;7397131;19;20514;-74
2022/06/09 10:43:16;;;;;;;2.65;1.13;;;;;18.50;93995.00;;;;7397363;19;20607;-75
2022/06/09 10:46:04;;;;;;;3.92;1.33;;;;;17.40;94023.00;;;;7395977;19;20144;-74
2022/06/09 10:55:18;;;;;;;4.70;1.60;;;;;16.00;94042.00;;;;7396879;19;20144;-76
2022/06/09 10:58:06;;;;;;;5.90;2.08;;;;;16.20;94029.00;;;;7396315;19;20140;-75
2022/06/09 11:00:45;;;;;;;3.70;1.95;;;;;16.80;94036.00;;;;7393550;19;20129;-75
2022/06/09 11:03:25;;;;;;;4.40;1.83;;;;;17.70;94016.00;;;;7395361;19;20208;-75
2022/06/09 11:05:59;;;;;;;2.35;1.42;;;;;18.00;94046.00;;;;7395841;19;20610;-74
2022/06/09 11:08:55;;;;;;;6.20;1.88;;;;;16.40;94044.00;;;;7395582;19;20133;-75
2022/06/09 11:11:47;;;;;;;3.78;1.27;;;;;16.40;94054.00;;;;7396293;19;20613;-75
2022/06/09 11:14:34;;;;;;;4.15;1.45;;;;;16.60;94055.00;;;;7396819;19;20117;-76
2022/06/09 11:17:11;;;;;;;6.82;1.75;;;;;16.30;94046.00;;;;7399196;19;20117;-75
2022/06/09 11:19:49;;;;;;;6.57;1.45;;;;;16.10;94053.00;;;;7395412;19;20489;-75
2022/06/09 11:23:01;;;;;;;5.45;1.63;;;;;16.30;94022.00;;;;7391858;19;20171;-75
2022/06/09 11:25:59;;;;;;;4.55;1.42;;;;;17.60;94027.00;;;;7394965;19;20140;-75
2022/06/09 11:29:11;;;;;;;3.17;1.20;;;;;18.20;94026.00;;;;7395014;19;20475;-73
2022/06/09 11:31:42;;;;;;;2.08;1.13;;;;;18.50;94018.00;;;;7397100;19;20215;-73
2022/06/09 11:34:34;;;;;;;2.83;1.00;;;;;18.90;94010.00;;;;7395265;19;20125;-74
2022/06/09 11:37:32;;;;;;;2.78;0.95;;;;;19.00;94037.00;;;;7392218;19;20610;-75
2022/06/09 11:40:18;;;;;;;2.08;1.00;;;;;18.70;94022.00;;;;7394811;19;20153;-76
2022/06/09 11:43:04;;;;;;;4.40;1.20;;;;;19.10;94015.00;;;;7394023;19;20145;-74
2022/06/09 11:45:52;;;;;;;1.80;1.13;;;;;19.20;94016.00;;;;7393914;19;20600;-76
2022/06/09 11:48:37;;;;;;;2.42;1.10;;;;;19.20;94012.00;;;;7394411;19;20132;-74
2022/06/09 11:51:21;;;;;;;3.40;1.27;;;;;20.80;93994.00;;;;7392170;19;20190;-75
2022/06/09 11:53:56;;;;;;;3.38;1.20;;;;;19.60;94027.00;;;;7395161;19;20145;-75
2022/06/09 11:56:43;;;;;;;7.75;1.30;;;;;18.00;94034.00;;;;7394184;19;20144;-73
2022/06/09 11:59:16;;;;;;;3.90;1.40;;;;;17.40;94038.00;;;;7393124;19;20135;-73
2022/06/09 12:02:29;;;;;;;3.10;1.10;;;;;17.20;94046.00;;;;7392790;19;20137;-75
2022/06/09 12:05:23;;;;;;;3.83;1.10;;;;;17.60;94044.00;;;;7393111;19;20603;-74
2022/06/09 12:08:17;;;;;;;4.18;1.10;;;;;17.80;94050.00;;;;7392693;19;20141;-75
2022/06/09 12:11:07;;;;;;;4.57;1.40;;;;;17.40;94023.00;;;;7392664;19;20137;-74
2022/06/09 12:14:15;;;;;;;2.55;1.20;;;;;19.20;94011.00;;;;7393977;19;20136;-74
2022/06/09 12:17:04;;;;;;;6.57;1.42;;;;;19.80;94016.00;;;;7392914;19;20148;-75
2022/06/09 12:19:53;;;;;;;2.22;1.00;;;;;19.80;94022.00;;;;7391982;19;20146;-76
2022/06/09 12:22:42;;;;;;;3.58;1.20;;;;;19.80;94017.00;;;;7382467;19;20771;-76
2022/06/09 12:25:17;;;;;;;3.28;0.82;;;;;18.80;94049.00;;;;7386106;19;20214;-75
2022/06/09 12:27:48;;;;;;;2.92;1.30;;;;;18.20;94057.00;;;;7388588;19;20583;-75
2022/06/09 12:30:19;;;;;;;1.48;0.93;;;;;17.40;94077.00;;;;7384183;19;20148;-76
2022/06/09 12:33:21;;;;;;;3.58;1.23;;;;;17.20;94064.00;;;;7387927;19;21229;-76
2022/06/09 12:35:54;;;;;;;4.18;1.40;;;;;17.90;94050.00;;;;7385581;19;20156;-74
2022/06/09 12:38:29;;;;;;;3.90;1.30;;;;;18.80;94003.00;;;;7386158;19;20145;-76
2022/06/09 12:41:02;;;;;;;4.78;1.35;;;;;19.90;94036.00;;;;7386143;19;20124;-76
2022/06/09 12:43:44;;;;;;;4.57;1.35;;;;;20.00;94028.00;;;;7385826;19;20148;-75
2022/06/09 12:46:29;;;;;;;8.43;1.40;;;;;19.30;94054.00;;;;7384075;19;20156;-75
2022/06/09 12:49:22;;;;;;;4.03;1.50;;;;;18.20;94030.00;;;;7385128;19;21164;-76
2022/06/09 12:51:56;;;;;;;3.30;1.20;;;;;18.70;94044.00;;;;7382576;19;20152;-75
2022/06/09 12:54:38;;;;;;;2.58;1.20;;;;;18.20;94080.00;;;;7384683;19;20240;-74
2022/06/09 12:57:20;;;;;;;4.22;1.00;;;;;17.50;94092.00;;;;7382445;19;20491;-75
2022/06/09 13:00:07;;;;;;;4.85;1.30;;;;;16.70;94101.00;;;;7381461;19;20235;-76
2022/06/09 13:02:38;;;;;;;9.13;1.83;;;;;16.20;94117.00;;;;7383985;19;20137;-75
2022/06/09 13:05:13;;;;;;;4.45;1.40;;;;;15.40;94125.00;;;;7383563;19;20160;-76
2022/06/09 13:07:47;;;;;;;4.85;1.80;;;;;14.70;94138.00;;;;7382783;19;20609;-76
2022/06/09 13:10:26;;;;;;;4.10;1.42;;;;;14.20;94161.00;;;;7380465;19;20144;-75
2022/06/09 13:13:12;;;;;;;10.95;2.00;;;;;13.60;94155.00;;;;7387128;19;20141;-76
2022/06/09 13:15:56;;;;;;;6.47;2.20;;;;;13.40;94155.00;;;;7386944;19;20173;-76
2022/06/09 13:18:43;;;;;;;5.43;1.92;;;;;13.70;94177.00;;;;7385589;19;20152;-75
2022/06/09 13:21:20;;;;;;;6.53;2.20;;;;;13.50;94160.00;;;;7385663;19;20580;-75
2022/06/09 13:23:55;;;;;;;6.85;1.88;;;;;14.10;94156.00;;;;7384547;19;20502;-74
2022/06/09 13:26:41;;;;;;;5.28;1.80;;;;;15.10;94155.00;;;;7385262;19;20165;-75
2022/06/09 13:29:21;;;;;;;5.28;2.13;;;;;15.40;94163.00;;;;7386481;19;20156;-76